KJAS/JAS METAR and TAF weather

Enter ICAO airport designator
Station Type Date Time Source
KJAS METAR 2019/02/20 23:15 UTC NOAA

KJAS 202315Z AUTO 35005KT 10SM CLR 15/08 A2997 RMK AO2 T01500084


Station Type Date Time Source
KJAS Decoded METAR 2019/02/20 23:15 UTC NOAA

Jasper, Jasper County-Bell Field Airport, TX, United States (KJAS) 30-53-08N 094-02-05W
Feb 20, 2019 - 06:15 PM EST / 2019.02.20 2315 UTC
Wind: from the N (350 degrees) at 6 MPH (5 KT):0
Visibility: 10 mile(s):0
Sky conditions: clear
Temperature: 59.0 F (15.0 C)
Dew Point: 47.1 F (8.4 C)
Relative Humidity: 64%
Pressure (altimeter): 29.97 in. Hg (1014 hPa)
ob: KJAS 202315Z AUTO 35005KT 10SM CLR 15/08 A2997 RMK AO2 T01500084
cycle: 23

Station Type Date Time Source
KJAS TAF UTC NOAA

Error!


Example: see airport list